Terminal Aerodrome Forecast
Issued by NWS

Home | Current Version | Previous Version | Text Only | Print | Product List | Glossary On
Versions: 1 2 3 4 5 6 7 8 9 10 11 12 13 14
000
FTUS43 KEAX 230500
TAFMKC
TAF
KMKC 230520Z 2306/2406 24007KT P6SM BKN080
     FM231200 25008KT P6SM BKN060
     FM240000 32007KT P6SM OVC018=

USA.gov is the U.S. government's official web portal to all federal, state and local government web resources and services.